Time;durP1;ratioP1;P1;durP2;ratioP2;P2;SDS_P1;SDS_P2;PMS_P1;PMS_P2;Temp;Humidity;BMP_temperature;BMP_pressure;BME280_temperature;BME280_humidity;BME280_pressure;Samples;Min_cycle;Max_cycle;Signal;HPM_P1;HPM_P2
2023/12/09 00:00:42;;;;;;;3.78;0.93;;;;;;;7.09;100.00;101111.22;5095179;27;97898;-28
2023/12/09 00:03:08;;;;;;;2.63;0.95;;;;;;;7.13;100.00;101120.94;5095586;27;97265;-28
2023/12/09 00:05:34;;;;;;;5.82;1.10;;;;;;;7.09;100.00;101113.91;5095593;27;96578;-28
2023/12/09 00:07:59;;;;;;;1.65;0.85;;;;;;;7.13;100.00;101129.03;5095719;27;96753;-27
2023/12/09 00:10:24;;;;;;;1.05;0.55;;;;;;;7.09;100.00;101124.69;5076877;27;102448;-27
2023/12/09 00:12:50;;;;;;;2.45;1.42;;;;;;;7.10;100.00;101134.50;5095203;27;100313;-28
2023/12/09 00:15:15;;;;;;;0.93;0.85;;;;;;;7.09;100.00;101132.78;5095396;27;96580;-28
2023/12/09 00:17:40;;;;;;;1.35;0.98;;;;;;;7.08;100.00;101130.13;5096482;27;96841;-27
2023/12/09 00:20:07;;;;;;;0.30;0.30;;;;;;;7.03;100.00;101124.94;5098731;27;105321;-28
2023/12/09 00:22:32;;;;;;;2.38;1.08;;;;;;;7.05;100.00;101127.59;5080104;27;101040;-27
2023/12/09 00:24:58;;;;;;;2.28;1.20;;;;;;;7.02;100.00;101123.19;5098304;27;96592;-28
2023/12/09 00:27:23;;;;;;;0.98;0.50;;;;;;;6.97;100.00;101118.00;5099295;27;96737;-27
2023/12/09 00:29:48;;;;;;;1.10;0.88;;;;;;;6.99;100.00;101131.41;5098842;27;97909;-27
2023/12/09 00:32:14;;;;;;;1.55;0.75;;;;;;;6.95;100.00;101130.66;5098780;27;97809;-28
2023/12/09 00:34:39;;;;;;;1.55;0.38;;;;;;;6.97;100.00;101138.69;5099115;27;96489;-28
2023/12/09 00:37:04;;;;;;;0.38;0.35;;;;;;;6.95;100.00;101132.47;5099072;27;96851;-27
2023/12/09 00:39:30;;;;;;;0.85;0.43;;;;;;;6.91;100.00;101117.38;5098333;27;103860;-28
2023/12/09 00:41:55;;;;;;;0.60;0.50;;;;;;;6.90;100.00;101107.56;5098767;27;97940;-28
2023/12/09 00:44:20;;;;;;;3.67;1.55;;;;;;;6.90;100.00;101118.34;5098268;27;99784;-27
2023/12/09 00:46:46;;;;;;;5.25;0.70;;;;;;;6.90;100.00;101110.25;5098989;27;96721;-27
2023/12/09 00:49:12;;;;;;;1.48;0.77;;;;;;;6.87;100.00;101113.97;5097912;27;99297;-28
2023/12/09 00:51:37;;;;;;;1.65;0.90;;;;;;;6.80;100.00;101117.84;5098344;27;97778;-28
2023/12/09 00:54:03;;;;;;;2.25;0.43;;;;;;;6.81;100.00;101112.38;5098149;27;96877;-27
2023/12/09 00:56:28;;;;;;;3.55;1.08;;;;;;;6.84;100.00;101121.28;5098758;27;96774;-27
2023/12/09 00:58:53;;;;;;;2.00;0.90;;;;;;;6.78;100.00;101101.75;5098516;27;103986;-28
2023/12/09 01:01:18;;;;;;;2.58;0.85;;;;;;;6.79;100.00;101102.63;5098103;27;104755;-29
2023/12/09 01:03:44;;;;;;;9.50;1.08;;;;;;;6.76;100.00;101113.53;5098674;27;96528;-28
2023/12/09 01:06:09;;;;;;;4.10;0.35;;;;;;;6.69;100.00;101104.81;5098572;27;97139;-27
2023/12/09 01:08:34;;;;;;;3.47;0.57;;;;;;;6.75;100.00;101115.34;5098240;27;98001;-28
2023/12/09 01:11:00;;;;;;;0.45;0.38;;;;;;;6.68;100.00;101095.00;5097849;27;104570;-27
2023/12/09 01:13:25;;;;;;;10.13;1.50;;;;;;;6.71;100.00;101107.47;5097673;27;96713;-28
2023/12/09 01:15:50;;;;;;;1.88;0.70;;;;;;;6.69;100.00;101110.19;5098373;27;96458;-27
2023/12/09 01:18:16;;;;;;;3.25;0.93;;;;;;;6.68;100.00;101113.84;5098098;27;97352;-28
2023/12/09 01:20:41;;;;;;;2.00;0.77;;;;;;;6.67;100.00;101103.13;5098107;27;97491;-30
2023/12/09 01:23:07;;;;;;;1.42;0.98;;;;;;;6.68;100.00;101100.38;5098414;27;96584;-28
2023/12/09 01:25:32;;;;;;;3.60;1.30;;;;;;;6.65;100.00;101097.84;5097804;27;96800;-27
2023/12/09 01:27:57;;;;;;;0.68;0.60;;;;;;;6.62;100.00;101094.38;5097689;27;104425;-27
2023/12/09 01:30:23;;;;;;;1.65;0.85;;;;;;;6.63;100.00;101088.06;5097076;27;97738;-27
2023/12/09 01:32:48;;;;;;;2.70;0.90;;;;;;;6.63;100.00;101088.94;5098040;27;96512;-27
2023/12/09 01:35:14;;;;;;;0.82;0.70;;;;;;;6.58;100.00;101080.19;5097992;27;96910;-27
2023/12/09 01:37:39;;;;;;;0.70;0.50;;;;;;;6.63;100.00;101082.69;5097491;27;97347;-27
2023/12/09 01:40:05;;;;;;;1.40;0.63;;;;;;;6.60;100.00;101075.59;5097156;27;104203;-28
2023/12/09 01:42:30;;;;;;;2.00;0.82;;;;;;;6.56;100.00;101068.59;5097891;27;96564;-28
2023/12/09 01:44:55;;;;;;;2.53;0.73;;;;;;;6.54;100.00;101054.34;5097742;27;96775;-27
2023/12/09 01:47:21;;;;;;;1.20;0.55;;;;;;;6.58;100.00;101067.59;5097242;27;104690;-28
2023/12/09 01:49:46;;;;;;;5.38;0.88;;;;;;;6.54;100.00;101065.97;5097384;27;97926;-27
2023/12/09 01:52:12;;;;;;;2.47;0.65;;;;;;;6.57;100.00;101064.97;5097477;27;96500;-27
2023/12/09 01:54:37;;;;;;;4.05;0.98;;;;;;;6.55;100.00;101067.72;5097557;27;96883;-27
2023/12/09 01:57:03;;;;;;;1.90;0.63;;;;;;;6.51;100.00;101073.31;5097581;27;97639;-28
2023/12/09 01:59:30;;;;;;;0.80;0.65;;;;;;;6.49;100.00;101073.34;5097019;27;98921;-28
2023/12/09 02:01:56;;;;;;;3.90;1.15;;;;;;;6.42;100.00;101066.47;5078493;27;96740;-28
2023/12/09 02:04:22;;;;;;;0.55;0.50;;;;;;;6.45;100.00;101069.03;5079049;27;96816;-28
2023/12/09 02:06:47;;;;;;;1.85;1.15;;;;;;;6.41;100.00;101059.31;5097299;27;98016;-29
2023/12/09 02:09:13;;;;;;;1.85;0.77;;;;;;;6.46;100.00;101069.91;5097313;27;97881;-27
2023/12/09 02:12:02;;;;;;;3.25;0.65;;;;;;;6.44;100.00;101072.69;5078732;27;96483;-27
2023/12/09 02:15:09;;;;;;;0.57;0.40;;;;;;;6.42;100.00;101062.91;5078695;27;96746;-27
2023/12/09 02:17:49;;;;;;;1.38;0.65;;;;;;;6.39;100.00;101058.53;5096134;27;99442;-28
2023/12/09 02:20:15;;;;;;;0.82;0.40;;;;;;;6.39;100.00;101061.22;5078738;27;100994;-28
2023/12/09 02:22:40;;;;;;;1.63;0.55;;;;;;;6.37;100.00;101057.72;5078615;27;96526;-28
2023/12/09 02:25:06;;;;;;;1.85;0.25;;;;;;;6.30;100.00;101030.19;5097076;27;96973;-27
2023/12/09 02:27:38;;;;;;;1.40;0.95;;;;;;;6.31;100.00;101042.69;5096140;27;99334;-28
2023/12/09 02:30:11;;;;;;;1.52;0.98;;;;;;;6.32;100.00;101039.06;5077960;27;100681;-28
2023/12/09 02:32:38;;;;;;;1.30;0.82;;;;;;;6.20;100.00;101026.13;5097156;27;97199;-27
2023/12/09 02:35:06;;;;;;;0.88;0.63;;;;;;;6.27;100.00;101038.38;5078538;27;96846;-28
2023/12/09 02:37:33;;;;;;;3.05;0.77;;;;;;;6.24;100.00;101033.13;5096594;27;99266;-28
2023/12/09 02:40:00;;;;;;;1.70;0.60;;;;;;;6.23;100.00;101034.06;5077915;27;99021;-28
2023/12/09 02:42:26;;;;;;;6.85;0.57;;;;;;;6.23;100.00;101025.13;5077944;27;96554;-28
2023/12/09 02:44:52;;;;;;;1.05;0.75;;;;;;;6.19;100.00;101021.66;5097473;27;96828;-30
2023/12/09 02:47:17;;;;;;;0.77;0.65;;;;;;;6.21;100.00;101008.16;5096671;27;97826;-29
2023/12/09 02:49:42;;;;;;;0.90;0.63;;;;;;;6.22;100.00;101024.25;5096301;27;97819;-28
2023/12/09 02:52:09;;;;;;;7.07;1.05;;;;;;;6.18;100.00;101014.56;5096439;27;96604;-28
2023/12/09 02:54:34;;;;;;;1.20;0.65;;;;;;;6.21;100.00;101018.94;5096331;27;97569;-28
2023/12/09 02:57:00;;;;;;;0.40;0.40;;;;;;;6.13;100.00;101027.31;5096533;27;97893;-28
2023/12/09 02:59:27;;;;;;;1.38;1.08;;;;;;;6.16;100.00;101008.34;5096353;27;97303;-27
2023/12/09 03:01:52;;;;;;;1.40;1.00;;;;;;;6.11;100.00;101027.38;5096406;27;96721;-27
2023/12/09 03:04:18;;;;;;;10.18;1.48;;;;;;;6.11;100.00;101002.28;5096616;27;96926;-27
2023/12/09 03:06:43;;;;;;;0.93;0.65;;;;;;;6.12;100.00;101017.47;5096401;27;97852;-28
2023/12/09 03:09:08;;;;;;;0.73;0.47;;;;;;;6.14;100.00;101002.16;5096623;27;97732;-28
2023/12/09 03:11:34;;;;;;;0.40;0.38;;;;;;;6.12;100.00;101012.09;5096288;27;96616;-34
2023/12/09 03:13:59;;;;;;;4.05;0.80;;;;;;;6.09;100.00;101007.72;5096306;27;96756;-27
2023/12/09 03:16:24;;;;;;;1.17;0.77;;;;;;;6.09;100.00;101007.72;5095829;27;97803;-28
2023/12/09 03:18:50;;;;;;;1.65;0.73;;;;;;;6.09;100.00;101006.84;5096059;27;97954;-28
2023/12/09 03:21:15;;;;;;;1.58;0.50;;;;;;;6.07;100.00;101003.34;5096476;27;96639;-27
2023/12/09 03:23:42;;;;;;;2.45;0.88;;;;;;;6.05;100.00;100998.03;5096335;27;96778;-28
2023/12/09 03:26:18;;;;;;;0.38;0.35;;;;;;;6.04;100.00;100995.41;5077092;27;99101;-27
2023/12/09 03:28:44;;;;;;;0.75;0.75;;;;;;;6.01;100.00;100984.78;5077200;27;100794;-28
2023/12/09 03:31:13;;;;;;;1.75;1.13;;;;;;;6.03;100.00;100988.25;5096333;27;96524;-27
2023/12/09 03:33:39;;;;;;;4.05;0.73;;;;;;;6.00;100.00;100991.09;5077837;27;96906;-27
2023/12/09 03:36:07;;;;;;;6.35;0.90;;;;;;;5.96;100.00;100974.22;5077151;27;101100;-28
2023/12/09 03:38:33;;;;;;;0.65;0.50;;;;;;;6.00;100.00;100977.66;5077218;27;101869;-27
2023/12/09 03:40:58;;;;;;;1.65;0.90;;;;;;;5.99;100.00;100979.47;5095537;27;96792;-28
2023/12/09 03:43:23;;;;;;;2.72;1.15;;;;;;;6.00;100.00;100972.25;5096220;27;96757;-27
2023/12/09 03:45:49;;;;;;;1.33;0.90;;;;;;;5.96;100.00;100958.09;5095556;27;98974;-28
2023/12/09 03:48:14;;;;;;;1.67;1.10;;;;;;;6.00;100.00;100969.56;5095798;27;98294;-29
2023/12/09 03:50:39;;;;;;;3.40;0.90;;;;;;;5.99;100.00;100965.16;5095729;27;96564;-27
2023/12/09 03:53:05;;;;;;;6.65;0.85;;;;;;;5.96;100.00;100955.41;5097294;27;96846;-27
2023/12/09 03:55:30;;;;;;;0.30;0.30;;;;;;;6.02;100.00;100955.13;5098913;27;97531;-27
2023/12/09 03:57:55;;;;;;;1.05;0.63;;;;;;;5.97;100.00;100946.38;5099704;27;97785;-27
2023/12/09 04:00:22;;;;;;;5.88;0.93;;;;;;;6.02;100.00;100968.56;5099506;27;96801;-27
2023/12/09 04:02:48;;;;;;;2.47;0.82;;;;;;;6.04;100.00;100960.47;5099589;27;96830;-28
2023/12/09 04:05:13;;;;;;;0.63;0.63;;;;;;;6.01;100.00;100955.22;5098640;27;98169;-28
2023/12/09 04:07:39;;;;;;;0.77;0.73;;;;;;;5.94;100.00;100952.75;5099009;27;99559;-28
2023/12/09 04:10:05;;;;;;;4.93;0.82;;;;;;;5.98;100.00;100944.56;5099715;27;96593;-27
2023/12/09 04:12:30;;;;;;;0.15;0.15;;;;;;;6.01;100.00;100947.16;5099514;27;96778;-28
2023/12/09 04:14:56;;;;;;;5.15;0.85;;;;;;;6.00;100.00;100948.94;5098727;27;99449;-27
2023/12/09 04:17:21;;;;;;;2.78;1.13;;;;;;;5.92;100.00;100935.78;5098933;27;97793;-27
2023/12/09 04:19:47;;;;;;;2.97;1.23;;;;;;;5.91;100.00;100925.97;5099439;27;96634;-29
2023/12/09 04:22:13;;;;;;;1.92;0.80;;;;;;;5.91;100.00;100927.78;5099636;27;96856;-28
2023/12/09 04:24:38;;;;;;;1.85;0.90;;;;;;;5.92;100.00;100922.34;5098420;27;97892;-27
2023/12/09 04:27:04;;;;;;;1.45;0.77;;;;;;;5.92;100.00;100925.03;5098856;27;98171;-28
2023/12/09 04:29:29;;;;;;;2.70;0.85;;;;;;;5.91;100.00;100917.91;5098725;27;96456;-27
2023/12/09 04:31:54;;;;;;;0.90;0.65;;;;;;;5.94;100.00;100922.31;5099144;27;96792;-28
2023/12/09 04:34:20;;;;;;;2.47;0.93;;;;;;;5.86;100.00;100906.44;5098955;27;97507;-27
2023/12/09 04:36:45;;;;;;;1.23;0.45;;;;;;;5.92;100.00;100933.09;5098533;27;99163;-28
2023/12/09 04:39:10;;;;;;;0.52;0.40;;;;;;;5.88;100.00;100909.94;5099129;27;96582;-27
2023/12/09 04:41:37;;;;;;;0.57;0.57;;;;;;;5.91;100.00;100904.47;5099087;27;96668;-27
2023/12/09 04:44:03;;;;;;;0.45;0.40;;;;;;;5.91;100.00;100904.47;5098511;27;97769;-28
2023/12/09 04:46:28;;;;;;;1.15;0.40;;;;;;;5.93;100.00;100917.84;5099063;27;97841;-28
2023/12/09 04:48:54;;;;;;;0.63;0.40;;;;;;;5.88;100.00;100904.56;5098650;27;96486;-28
2023/12/09 04:51:19;;;;;;;3.65;0.73;;;;;;;5.88;100.00;100903.72;5080166;27;96881;-28
2023/12/09 04:53:44;;;;;;;3.08;0.40;;;;;;;5.85;100.00;100893.09;5097028;27;99241;-28
2023/12/09 04:56:10;;;;;;;3.67;1.15;;;;;;;5.87;100.00;100905.53;5098396;27;97815;-28
2023/12/09 04:58:35;;;;;;;0.68;0.52;;;;;;;5.86;100.00;100913.66;5098397;27;96482;-28
2023/12/09 05:01:01;;;;;;;2.35;0.88;;;;;;;5.90;100.00;100916.16;5098696;27;96743;-27
2023/12/09 05:03:27;;;;;;;9.65;1.23;;;;;;;5.90;100.00;100909.91;5098146;27;97965;-27
2023/12/09 05:05:52;;;;;;;2.22;0.73;;;;;;;5.87;100.00;100900.16;5098071;27;99464;-27
2023/12/09 05:08:18;;;;;;;2.00;1.17;;;;;;;5.85;100.00;100893.97;5098408;27;96490;-28
2023/12/09 05:10:43;;;;;;;2.95;1.08;;;;;;;5.91;100.00;100898.19;5098971;27;96754;-28
2023/12/09 05:13:09;;;;;;;0.32;0.32;;;;;;;5.90;100.00;100897.34;5097919;27;99371;-28
2023/12/09 05:15:34;;;;;;;2.35;1.23;;;;;;;5.85;100.00;100883.22;5098072;27;97859;-32
2023/12/09 05:17:59;;;;;;;4.85;0.90;;;;;;;5.85;100.00;100891.28;5098077;27;96374;-28
2023/12/09 05:20:25;;;;;;;0.77;0.70;;;;;;;5.83;100.00;100885.09;5098395;27;96809;-28
2023/12/09 05:22:50;;;;;;;2.85;1.40;;;;;;;5.87;100.00;100892.09;5098005;27;97972;-28
2023/12/09 05:25:16;;;;;;;4.10;1.92;;;;;;;5.81;100.00;100886.94;5097362;27;97393;-28
2023/12/09 05:27:41;;;;;;;1.55;0.35;;;;;;;5.86;100.00;100879.56;5097936;27;96421;-27
2023/12/09 05:30:07;;;;;;;2.55;1.63;;;;;;;5.87;100.00;100875.09;5098337;27;97175;-27
2023/12/09 05:32:32;;;;;;;5.00;1.90;;;;;;;5.82;100.00;100863.66;5097807;27;98011;-27
2023/12/09 05:34:58;;;;;;;3.47;2.15;;;;;;;5.85;100.00;100887.72;5097692;27;98985;-27
2023/12/09 05:37:23;;;;;;;6.63;0.95;;;;;;;5.83;100.00;100884.22;5079242;27;96609;-28
2023/12/09 05:39:49;;;;;;;3.92;1.27;;;;;;;5.82;100.00;100875.28;5097911;27;97261;-29
2023/12/09 05:42:14;;;;;;;2.47;1.38;;;;;;;5.81;100.00;100869.97;5097034;27;98985;-28
2023/12/09 05:44:40;;;;;;;1.17;1.08;;;;;;;5.81;100.00;100861.91;5097545;27;97770;-28
2023/12/09 05:47:05;;;;;;;4.40;1.83;;;;;;;5.79;100.00;100858.41;5097881;27;96510;-28
2023/12/09 05:49:30;;;;;;;2.38;1.33;;;;;;;5.78;100.00;100865.59;5097544;27;96895;-28
2023/12/09 05:51:57;;;;;;;2.47;1.33;;;;;;;5.78;100.00;100857.53;5097415;27;100642;-28
2023/12/09 05:54:22;;;;;;;6.30;2.28;;;;;;;5.74;100.00;100853.22;5077837;27;101168;-28
2023/12/09 05:56:51;;;;;;;1.90;1.33;;;;;;;5.78;100.00;100844.09;5097939;27;96710;-28
2023/12/09 05:59:16;;;;;;;4.97;1.55;;;;;;;5.79;100.00;100853.00;5079240;27;96962;-27
2023/12/09 06:01:42;;;;;;;1.95;1.52;;;;;;;5.82;100.00;100850.22;5097239;27;98102;-27
2023/12/09 06:04:07;;;;;;;1.23;0.93;;;;;;;5.83;100.00;100843.91;5097367;27;97860;-28
2023/12/09 06:06:32;;;;;;;0.90;0.82;;;;;;;5.83;100.00;100839.38;5097049;27;96659;-29
2023/12/09 06:08:58;;;;;;;4.60;2.03;;;;;;;5.84;100.00;100851.91;5097416;27;96879;-28
2023/12/09 06:11:23;;;;;;;4.95;1.70;;;;;;;5.81;100.00;100835.88;5078579;27;100766;-27
2023/12/09 06:13:48;;;;;;;2.15;0.88;;;;;;;5.82;100.00;100826.91;5096723;27;104636;-28
2023/12/09 06:16:18;;;;;;;7.45;3.05;;;;;;;5.89;100.00;100836.47;5096390;27;96497;-28
2023/12/09 06:18:43;;;;;;;1.23;0.70;;;;;;;5.90;100.00;100837.31;5078797;27;96918;-28
2023/12/09 06:21:17;;;;;;;2.00;1.40;;;;;;;5.89;100.00;100820.31;5097215;27;97417;-31
2023/12/09 06:23:42;;;;;;;4.53;2.17;;;;;;;5.91;100.00;100806.81;5097580;27;97910;-28
2023/12/09 06:26:08;;;;;;;3.42;2.25;;;;;;;5.93;100.00;100805.81;5096575;27;96913;-28
2023/12/09 06:28:35;;;;;;;4.32;1.63;;;;;;;5.97;100.00;100803.91;5097263;27;96772;-28
2023/12/09 06:31:02;;;;;;;1.60;1.25;;;;;;;5.94;100.00;100795.97;5077598;27;100686;-28
2023/12/09 06:33:27;;;;;;;1.92;0.82;;;;;;;6.00;100.00;100784.06;5078165;27;99273;-28
2023/12/09 06:35:52;;;;;;;5.40;2.25;;;;;;;5.99;100.00;100772.44;5078256;27;96678;-28
2023/12/09 06:38:18;;;;;;;4.85;2.40;;;;;;;6.00;100.00;100757.19;5097121;27;96777;-28
2023/12/09 06:40:43;;;;;;;4.13;2.55;;;;;;;6.05;100.00;100760.53;5096520;27;98043;-28
2023/12/09 06:43:08;;;;;;;4.10;1.58;;;;;;;6.01;100.00;100743.69;5096719;27;99456;-28
2023/12/09 06:45:34;;;;;;;2.63;1.25;;;;;;;6.10;100.00;100740.59;5095990;27;96886;-28
2023/12/09 06:47:59;;;;;;;4.50;3.03;;;;;;;6.09;100.00;100721.81;5096992;27;96940;-28
2023/12/09 06:50:24;;;;;;;4.68;1.80;;;;;;;6.06;100.00;100719.28;5095696;27;102141;-28
2023/12/09 06:52:50;;;;;;;5.70;1.95;;;;;;;6.11;100.00;100722.63;5096452;27;97908;-28
2023/12/09 06:55:15;;;;;;;1.45;1.33;;;;;;;6.09;100.00;100708.38;5095659;27;96839;-28
2023/12/09 06:57:40;;;;;;;2.28;1.48;;;;;;;6.10;100.00;100721.75;5096537;27;96844;-27
2023/12/09 07:00:08;;;;;;;4.75;1.70;;;;;;;6.14;100.00;100734.09;5096612;27;97394;-29
2023/12/09 07:02:33;;;;;;;3.85;2.72;;;;;;;6.12;100.00;100730.59;5075922;27;100924;-32
2023/12/09 07:04:58;;;;;;;4.10;3.03;;;;;;;6.13;100.00;100718.94;5094294;27;97100;-32
2023/12/09 07:07:24;;;;;;;3.00;2.05;;;;;;;6.10;100.00;100705.63;5093896;27;97094;-31
2023/12/09 07:09:49;;;;;;;2.30;1.67;;;;;;;6.13;100.00;100689.34;5093970;27;97972;-33
2023/12/09 07:12:14;;;;;;;4.72;2.33;;;;;;;6.13;100.00;100693.84;5094207;27;97740;-31
2023/12/09 07:14:39;;;;;;;2.55;1.73;;;;;;;6.17;100.00;100692.75;5093733;27;96734;-31
2023/12/09 07:17:05;;;;;;;4.20;1.90;;;;;;;6.22;100.00;100712.25;5095151;27;97065;-28
2023/12/09 07:19:30;;;;;;;3.75;2.55;;;;;;;6.24;100.00;100721.09;5095651;27;97943;-28
2023/12/09 07:21:55;;;;;;;7.50;3.53;;;;;;;6.26;100.00;100700.41;5096191;27;97781;-27
2023/12/09 07:24:21;;;;;;;1.98;1.52;;;;;;;6.28;100.00;100689.59;5096081;27;96533;-28
2023/12/09 07:26:46;;;;;;;6.32;2.78;;;;;;;6.32;100.00;100693.88;5096427;27;96893;-27
2023/12/09 07:29:11;;;;;;;3.15;2.40;;;;;;;6.33;100.00;100685.72;5095953;27;97931;-28
2023/12/09 07:31:37;;;;;;;3.13;2.42;;;;;;;6.33;100.00;100674.09;5095885;27;99366;-28
2023/12/09 07:34:03;;;;;;;6.78;2.35;;;;;;;6.33;100.00;100660.66;5096363;27;96622;-28
2023/12/09 07:36:28;;;;;;;1.95;1.60;;;;;;;6.41;100.00;100671.03;5077677;27;96896;-27
2023/12/09 07:38:54;;;;;;;5.45;2.38;;;;;;;6.44;100.00;100654.78;5095990;27;97451;-28
2023/12/09 07:41:19;;;;;;;3.30;2.20;;;;;;;6.38;100.00;100635.25;5095775;27;97852;-28
2023/12/09 07:43:44;;;;;;;2.47;1.55;;;;;;;6.46;100.00;100643.00;5077290;27;96661;-28
2023/12/09 07:46:10;;;;;;;5.57;2.38;;;;;;;6.47;100.00;100655.47;5095770;27;96829;-28
2023/12/09 07:48:35;;;;;;;1.50;0.77;;;;;;;6.49;100.00;100656.28;5095875;27;97945;-29
2023/12/09 07:51:01;;;;;;;1.55;1.17;;;;;;;6.50;100.00;100666.09;5095381;27;99222;-28
2023/12/09 07:53:26;;;;;;;4.22;1.70;;;;;;;6.48;100.00;100661.72;5096078;27;96577;-28
2023/12/09 07:55:51;;;;;;;11.60;2.78;;;;;;;6.50;100.00;100662.53;5095774;27;96781;-28
2023/12/09 07:58:17;;;;;;;2.45;1.52;;;;;;;6.54;100.00;100662.31;5077128;27;99499;-27
2023/12/09 08:00:42;;;;;;;9.85;1.75;;;;;;;6.50;100.00;100641.00;5096137;27;97853;-28
2023/12/09 08:03:07;;;;;;;2.63;1.70;;;;;;;6.56;100.00;100654.19;5095695;27;96831;-28
2023/12/09 08:05:34;;;;;;;8.05;1.42;;;;;;;6.59;100.00;100654.03;5096115;27;96814;-28
2023/12/09 08:08:01;;;;;;;6.88;3.78;;;;;;;6.56;100.00;100633.53;5095392;27;97461;-28
2023/12/09 08:10:26;;;;;;;3.60;1.35;;;;;;;6.64;100.00;100640.34;5076716;27;99064;-28
2023/12/09 08:12:52;;;;;;;2.92;1.35;;;;;;;6.60;100.00;100626.16;5095848;27;96580;-28
2023/12/09 08:15:17;;;;;;;3.92;2.00;;;;;;;6.61;100.00;100638.69;5095596;27;96950;-28
2023/12/09 08:17:42;;;;;;;0.30;0.30;;;;;;;6.65;100.00;100631.31;5095502;27;97867;-28
2023/12/09 08:20:08;;;;;;;3.90;1.45;;;;;;;6.69;100.00;100636.47;5095230;27;97811;-28
2023/12/09 08:22:36;;;;;;;1.67;1.08;;;;;;;6.71;100.00;100633.72;5095586;27;96701;-27
2023/12/09 08:25:01;;;;;;;2.40;1.08;;;;;;;6.70;100.00;100624.78;5077015;27;96829;-28
2023/12/09 08:27:26;;;;;;;3.08;1.42;;;;;;;6.72;100.00;100622.00;5095336;27;97616;-29
2023/12/09 08:29:52;;;;;;;4.18;1.25;;;;;;;6.75;100.00;100616.47;5095189;27;100664;-28
2023/12/09 08:32:17;;;;;;;0.95;0.88;;;;;;;6.74;100.00;100612.88;5094798;27;96673;-28
2023/12/09 08:34:42;;;;;;;1.33;0.98;;;;;;;6.76;100.00;100600.22;5095133;27;96798;-28
2023/12/09 08:37:08;;;;;;;7.78;1.63;;;;;;;6.77;100.00;100603.81;5094997;27;99326;-28
2023/12/09 08:39:38;;;;;;;3.85;1.25;;;;;;;6.81;100.00;100600.88;5096923;27;99128;-29
2023/12/09 08:42:04;;;;;;;0.55;0.50;;;;;;;6.79;100.00;100581.25;5080365;27;96730;-29
2023/12/09 08:44:29;;;;;;;2.88;1.38;;;;;;;6.83;100.00;100581.09;5098621;27;96821;-28
2023/12/09 08:46:54;;;;;;;1.70;1.13;;;;;;;6.87;100.00;100569.22;5098160;27;106408;-28
2023/12/09 08:49:19;;;;;;;5.32;0.90;;;;;;;6.87;100.00;100555.78;5079743;27;99321;-28
2023/12/09 08:51:46;;;;;;;1.50;0.88;;;;;;;6.87;100.00;100547.69;5098451;27;98114;-29
2023/12/09 08:54:12;;;;;;;7.03;0.98;;;;;;;6.86;100.00;100532.47;5079682;27;96913;-28
2023/12/09 08:56:38;;;;;;;3.63;1.23;;;;;;;6.92;100.00;100532.16;5079307;27;101030;-28
2023/12/09 08:59:07;;;;;;;5.40;0.98;;;;;;;6.91;100.00;100531.31;5098380;27;97793;-28
2023/12/09 09:01:35;;;;;;;3.25;1.23;;;;;;;6.88;100.00;100517.97;5080170;27;96617;-31
2023/12/09 09:04:01;;;;;;;2.97;0.40;;;;;;;6.90;100.00;100510.69;5079774;27;96874;-28
2023/12/09 09:06:27;;;;;;;3.58;1.20;;;;;;;6.92;100.00;100518.72;5079555;27;101046;-28
2023/12/09 09:08:52;;;;;;;5.72;2.25;;;;;;;6.98;100.00;100518.38;5098669;27;96880;-28
2023/12/09 09:11:17;;;;;;;3.90;0.47;;;;;;;6.99;100.00;100525.53;5098314;27;98775;-28
2023/12/09 09:13:42;;;;;;;0.65;0.52;;;;;;;6.98;100.00;100513.88;5098955;27;96773;-29
2023/12/09 09:16:08;;;;;;;1.83;0.88;;;;;;;6.96;100.00;100512.19;5079867;27;97037;-27
2023/12/09 09:18:33;;;;;;;12.95;1.15;;;;;;;7.00;100.00;100509.25;5098219;27;97824;-28
2023/12/09 09:20:58;;;;;;;1.08;0.57;;;;;;;7.02;100.00;100517.28;5097955;27;96605;-29
2023/12/09 09:23:24;;;;;;;3.72;0.70;;;;;;;7.03;100.00;100505.53;5098254;27;96723;-28
2023/12/09 09:25:49;;;;;;;1.40;0.88;;;;;;;7.04;100.00;100493.84;5098315;27;97420;-28
2023/12/09 09:28:14;;;;;;;1.48;0.98;;;;;;;7.06;100.00;100481.16;5098397;27;97213;-28
2023/12/09 09:30:40;;;;;;;0.90;0.47;;;;;;;7.07;100.00;100472.13;5098478;27;96571;-28
2023/12/09 09:33:06;;;;;;;7.25;0.93;;;;;;;7.09;100.00;100470.22;5098123;27;96785;-28
2023/12/09 09:35:33;;;;;;;0.35;0.28;;;;;;;7.10;100.00;100463.00;5097836;27;97970;-28
2023/12/09 09:37:59;;;;;;;0.60;0.50;;;;;;;7.10;100.00;100452.22;5079335;27;100634;-28
2023/12/09 09:40:24;;;;;;;1.27;0.55;;;;;;;7.15;100.00;100448.34;5097950;27;96660;-28
2023/12/09 09:42:59;;;;;;;5.55;0.77;;;;;;;7.11;100.00;100422.53;5097888;27;96906;-28
2023/12/09 09:45:27;;;;;;;3.17;1.08;;;;;;;7.17;100.00;100426.69;5096887;27;97403;-28
2023/12/09 09:47:57;;;;;;;6.13;1.00;;;;;;;7.15;100.00;100404.38;5078905;27;100867;-27
2023/12/09 09:50:25;;;;;;;0.55;0.32;;;;;;;7.17;100.00;100389.84;5077972;27;96647;-27
2023/12/09 09:52:52;;;;;;;3.60;0.93;;;;;;;7.20;100.00;100386.16;5079150;27;96931;-29
2023/12/09 09:55:20;;;;;;;4.32;0.65;;;;;;;7.22;100.00;100382.44;5096824;27;97469;-27
2023/12/09 09:57:46;;;;;;;4.55;1.27;;;;;;;7.27;100.00;100376.78;5078800;27;100844;-28
2023/12/09 10:00:14;;;;;;;3.03;0.80;;;;;;;7.32;100.00;100372.00;5078988;27;96687;-28
2023/12/09 10:02:43;;;;;;;0.47;0.45;;;;;;;7.29;100.00;100352.44;5079373;27;96870;-27
2023/12/09 10:05:10;;;;;;;1.67;0.70;;;;;;;7.34;100.00;100361.13;5078625;27;100834;-28
2023/12/09 10:07:36;;;;;;;0.88;0.68;;;;;;;7.38;100.00;100349.22;5078579;27;101314;-28
2023/12/09 10:10:02;;;;;;;0.65;0.35;;;;;;;7.38;100.00;100338.44;5096938;27;96454;-27
2023/12/09 10:12:28;;;;;;;1.02;0.75;;;;;;;7.39;100.00;100313.25;5078830;27;96844;-29
2023/12/09 10:14:54;;;;;;;2.05;0.63;;;;;;;7.44;100.00;100324.63;5096830;27;97518;-28
2023/12/09 10:17:19;;;;;;;1.20;0.30;;;;;;;7.44;100.00;100325.50;5097215;27;98009;-28
2023/12/09 10:19:45;;;;;;;1.23;0.28;;;;;;;7.46;100.00;100317.34;5097789;27;96620;-27
2023/12/09 10:22:10;;;;;;;2.83;0.73;;;;;;;7.47;100.00;100297.50;5097647;27;96784;-29
2023/12/09 10:24:35;;;;;;;0.73;0.28;;;;;;;7.48;100.00;100298.38;5097033;27;97958;-28
2023/12/09 10:27:01;;;;;;;0.40;0.32;;;;;;;7.50;100.00;100288.38;5097424;27;97521;-28
2023/12/09 10:29:26;;;;;;;2.03;1.27;;;;;;;7.49;100.00;100268.66;5097199;27;96505;-28
2023/12/09 10:31:52;;;;;;;1.23;0.70;;;;;;;7.42;100.00;100251.09;5097240;27;96766;-28
2023/12/09 10:34:18;;;;;;;0.63;0.25;;;;;;;7.42;100.00;100253.81;5096290;27;99247;-29
2023/12/09 10:36:43;;;;;;;0.77;0.70;;;;;;;7.42;100.00;100237.63;5096666;27;99231;-28
2023/12/09 10:39:09;;;;;;;0.95;0.43;;;;;;;7.48;100.00;100239.09;5096838;27;96476;-28
2023/12/09 10:41:34;;;;;;;0.28;0.25;;;;;;;7.47;100.00;100232.84;5096799;27;96832;-29
2023/12/09 10:44:01;;;;;;;1.23;0.55;;;;;;;7.49;100.00;100212.06;5096462;27;98011;-28
2023/12/09 10:46:26;;;;;;;0.80;0.60;;;;;;;7.43;100.00;100191.72;5077913;27;100800;-27
2023/12/09 10:48:51;;;;;;;0.47;0.38;;;;;;;7.43;100.00;100183.63;5097027;27;96600;-27
2023/12/09 10:51:18;;;;;;;4.05;0.60;;;;;;;7.46;100.00;100185.31;5097568;27;96897;-28
2023/12/09 10:53:44;;;;;;;3.80;1.00;;;;;;;7.46;100.00;100171.84;5077672;27;100824;-28
2023/12/09 10:56:10;;;;;;;0.47;0.45;;;;;;;7.40;100.00;100148.81;5077611;27;102141;-28
2023/12/09 10:58:36;;;;;;;0.95;0.45;;;;;;;7.40;100.00;100129.09;5096171;27;96685;-28
2023/12/09 11:01:02;;;;;;;0.90;0.38;;;;;;;7.40;100.00;100127.25;5078175;27;96869;-28
2023/12/09 11:03:29;;;;;;;1.77;0.77;;;;;;;7.35;100.00;100117.72;5077496;27;101106;-27
2023/12/09 11:05:58;;;;;;;2.13;0.60;;;;;;;7.35;100.00;100110.50;5096298;27;97329;-28
2023/12/09 11:08:28;;;;;;;2.25;0.65;;;;;;;7.37;100.00;100092.41;5078049;27;96587;-28
2023/12/09 11:10:55;;;;;;;1.65;0.70;;;;;;;7.32;100.00;100077.50;5077732;27;96523;-29
2023/12/09 11:13:24;;;;;;;1.17;0.45;;;;;;;7.38;100.00;100074.41;5077406;27;101080;-27
2023/12/09 11:16:06;;;;;;;2.65;0.43;;;;;;;7.36;100.00;100054.78;5077806;27;100721;-27
2023/12/09 11:18:32;;;;;;;3.95;0.47;;;;;;;7.33;100.00;100031.59;5096510;27;96639;-28